sensor_id;sensor_type;location;lat;lon;timestamp;P1;durP1;ratioP1;P2;durP2;ratioP2
37157;SDS011;23050;51.776;22.638;2024-02-14T00:02:07;14.75;;;5.90;;
37157;SDS011;23050;51.776;22.638;2024-02-14T00:04:32;17.88;;;5.53;;
37157;SDS011;23050;51.776;22.638;2024-02-14T00:06:58;14.95;;;6.88;;
37157;SDS011;23050;51.776;22.638;2024-02-14T00:09:24;18.77;;;7.18;;
37157;SDS011;23050;51.776;22.638;2024-02-14T00:11:50;24.92;;;8.00;;
37157;SDS011;23050;51.776;22.638;2024-02-14T00:14:16;25.13;;;7.97;;
37157;SDS011;23050;51.776;22.638;2024-02-14T00:16:44;18.45;;;7.78;;
37157;SDS011;23050;51.776;22.638;2024-02-14T00:19:10;20.67;;;7.72;;
37157;SDS011;23050;51.776;22.638;2024-02-14T00:21:35;22.90;;;7.38;;
37157;SDS011;23050;51.776;22.638;2024-02-14T00:24:01;22.85;;;8.52;;
37157;SDS011;23050;51.776;22.638;2024-02-14T00:26:27;18.48;;;7.38;;
37157;SDS011;23050;51.776;22.638;2024-02-14T00:28:53;18.90;;;7.85;;
37157;SDS011;23050;51.776;22.638;2024-02-14T00:31:18;19.52;;;7.20;;
37157;SDS011;23050;51.776;22.638;2024-02-14T00:33:44;18.48;;;7.28;;
37157;SDS011;23050;51.776;22.638;2024-02-14T00:36:11;19.88;;;7.78;;
37157;SDS011;23050;51.776;22.638;2024-02-14T00:38:37;20.05;;;8.88;;
37157;SDS011;23050;51.776;22.638;2024-02-14T00:41:02;20.67;;;8.20;;
37157;SDS011;23050;51.776;22.638;2024-02-14T00:43:28;19.60;;;7.50;;
37157;SDS011;23050;51.776;22.638;2024-02-14T00:45:54;20.83;;;7.25;;
37157;SDS011;23050;51.776;22.638;2024-02-14T00:48:21;17.15;;;8.52;;
37157;SDS011;23050;51.776;22.638;2024-02-14T00:50:48;22.10;;;8.30;;
37157;SDS011;23050;51.776;22.638;2024-02-14T00:53:13;19.33;;;6.85;;
37157;SDS011;23050;51.776;22.638;2024-02-14T00:55:39;21.58;;;7.10;;
37157;SDS011;23050;51.776;22.638;2024-02-14T00:58:05;20.05;;;8.85;;
37157;SDS011;23050;51.776;22.638;2024-02-14T01:00:31;18.75;;;8.15;;
37157;SDS011;23050;51.776;22.638;2024-02-14T01:02:59;19.00;;;8.10;;
37157;SDS011;23050;51.776;22.638;2024-02-14T01:05:24;18.05;;;8.32;;
37157;SDS011;23050;51.776;22.638;2024-02-14T01:07:50;20.90;;;8.88;;
37157;SDS011;23050;51.776;22.638;2024-02-14T01:10:16;20.10;;;8.38;;
37157;SDS011;23050;51.776;22.638;2024-02-14T01:12:43;21.52;;;8.63;;
37157;SDS011;23050;51.776;22.638;2024-02-14T01:15:09;15.68;;;8.02;;
37157;SDS011;23050;51.776;22.638;2024-02-14T01:17:35;19.88;;;7.53;;
37157;SDS011;23050;51.776;22.638;2024-02-14T01:20:01;19.38;;;8.15;;
37157;SDS011;23050;51.776;22.638;2024-02-14T01:22:27;19.70;;;9.00;;
37157;SDS011;23050;51.776;22.638;2024-02-14T01:24:53;21.00;;;8.07;;
37157;SDS011;23050;51.776;22.638;2024-02-14T01:27:19;15.18;;;7.13;;
37157;SDS011;23050;51.776;22.638;2024-02-14T01:29:47;21.67;;;8.48;;
37157;SDS011;23050;51.776;22.638;2024-02-14T01:32:14;32.65;;;13.95;;
37157;SDS011;23050;51.776;22.638;2024-02-14T01:34:39;20.85;;;10.13;;
37157;SDS011;23050;51.776;22.638;2024-02-14T01:37:07;21.80;;;9.15;;
37157;SDS011;23050;51.776;22.638;2024-02-14T01:39:34;19.92;;;9.38;;
37157;SDS011;23050;51.776;22.638;2024-02-14T01:42:00;19.00;;;8.45;;
37157;SDS011;23050;51.776;22.638;2024-02-14T01:46:55;18.38;;;7.78;;
37157;SDS011;23050;51.776;22.638;2024-02-14T01:49:21;19.13;;;8.50;;
37157;SDS011;23050;51.776;22.638;2024-02-14T01:51:46;17.98;;;9.00;;
37157;SDS011;23050;51.776;22.638;2024-02-14T01:54:12;18.15;;;8.15;;
37157;SDS011;23050;51.776;22.638;2024-02-14T01:56:40;20.85;;;7.85;;
37157;SDS011;23050;51.776;22.638;2024-02-14T01:59:06;19.08;;;8.65;;
37157;SDS011;23050;51.776;22.638;2024-02-14T02:01:34;20.42;;;8.02;;
37157;SDS011;23050;51.776;22.638;2024-02-14T02:04:00;18.75;;;8.50;;
37157;SDS011;23050;51.776;22.638;2024-02-14T02:06:28;20.33;;;7.75;;
37157;SDS011;23050;51.776;22.638;2024-02-14T02:08:55;19.98;;;8.38;;
37157;SDS011;23050;51.776;22.638;2024-02-14T02:11:21;19.27;;;9.00;;
37157;SDS011;23050;51.776;22.638;2024-02-14T02:13:47;20.92;;;9.32;;
37157;SDS011;23050;51.776;22.638;2024-02-14T02:16:13;21.42;;;10.15;;
37157;SDS011;23050;51.776;22.638;2024-02-14T02:18:40;21.70;;;8.68;;
37157;SDS011;23050;51.776;22.638;2024-02-14T02:21:05;22.02;;;8.38;;
37157;SDS011;23050;51.776;22.638;2024-02-14T02:23:32;27.63;;;8.93;;
37157;SDS011;23050;51.776;22.638;2024-02-14T02:28:27;27.98;;;9.32;;
37157;SDS011;23050;51.776;22.638;2024-02-14T02:30:52;25.20;;;9.88;;
37157;SDS011;23050;51.776;22.638;2024-02-14T02:33:20;23.10;;;9.70;;
37157;SDS011;23050;51.776;22.638;2024-02-14T02:35:47;21.40;;;8.68;;
37157;SDS011;23050;51.776;22.638;2024-02-14T02:38:15;19.17;;;8.55;;
37157;SDS011;23050;51.776;22.638;2024-02-14T02:40:45;21.27;;;8.57;;
37157;SDS011;23050;51.776;22.638;2024-02-14T02:43:10;20.42;;;8.82;;
37157;SDS011;23050;51.776;22.638;2024-02-14T02:45:36;18.45;;;9.00;;
37157;SDS011;23050;51.776;22.638;2024-02-14T02:48:02;21.35;;;9.30;;
37157;SDS011;23050;51.776;22.638;2024-02-14T02:50:28;26.17;;;10.23;;
37157;SDS011;23050;51.776;22.638;2024-02-14T02:52:55;21.08;;;9.55;;
37157;SDS011;23050;51.776;22.638;2024-02-14T02:55:22;20.73;;;9.85;;
37157;SDS011;23050;51.776;22.638;2024-02-14T02:57:48;17.50;;;8.93;;
37157;SDS011;23050;51.776;22.638;2024-02-14T03:00:14;20.48;;;9.63;;
37157;SDS011;23050;51.776;22.638;2024-02-14T03:02:40;24.58;;;8.93;;
37157;SDS011;23050;51.776;22.638;2024-02-14T03:05:09;18.40;;;8.93;;
37157;SDS011;23050;51.776;22.638;2024-02-14T03:07:42;16.92;;;8.75;;
37157;SDS011;23050;51.776;22.638;2024-02-14T03:10:10;21.02;;;10.02;;
37157;SDS011;23050;51.776;22.638;2024-02-14T03:12:37;20.13;;;9.38;;
37157;SDS011;23050;51.776;22.638;2024-02-14T03:15:04;24.52;;;10.25;;
37157;SDS011;23050;51.776;22.638;2024-02-14T03:17:30;20.73;;;9.82;;
37157;SDS011;23050;51.776;22.638;2024-02-14T03:19:56;23.15;;;9.55;;
37157;SDS011;23050;51.776;22.638;2024-02-14T03:22:22;22.25;;;9.38;;
37157;SDS011;23050;51.776;22.638;2024-02-14T03:24:48;19.92;;;9.98;;
37157;SDS011;23050;51.776;22.638;2024-02-14T03:27:13;20.98;;;10.02;;
37157;SDS011;23050;51.776;22.638;2024-02-14T03:29:39;22.77;;;9.52;;
37157;SDS011;23050;51.776;22.638;2024-02-14T03:32:05;24.25;;;10.52;;
37157;SDS011;23050;51.776;22.638;2024-02-14T03:34:33;24.85;;;10.35;;
37157;SDS011;23050;51.776;22.638;2024-02-14T03:37:00;20.17;;;9.95;;
37157;SDS011;23050;51.776;22.638;2024-02-14T03:39:29;16.90;;;7.28;;
37157;SDS011;23050;51.776;22.638;2024-02-14T03:41:55;23.73;;;10.90;;
37157;SDS011;23050;51.776;22.638;2024-02-14T03:44:24;22.65;;;10.20;;
37157;SDS011;23050;51.776;22.638;2024-02-14T03:46:50;27.35;;;11.45;;
37157;SDS011;23050;51.776;22.638;2024-02-14T03:49:16;21.30;;;10.70;;
37157;SDS011;23050;51.776;22.638;2024-02-14T03:51:41;25.45;;;11.05;;
37157;SDS011;23050;51.776;22.638;2024-02-14T03:54:07;27.98;;;12.95;;
37157;SDS011;23050;51.776;22.638;2024-02-14T03:56:33;25.58;;;11.60;;
37157;SDS011;23050;51.776;22.638;2024-02-14T03:58:58;27.55;;;11.90;;
37157;SDS011;23050;51.776;22.638;2024-02-14T04:01:24;21.33;;;11.68;;
37157;SDS011;23050;51.776;22.638;2024-02-14T04:03:50;25.38;;;11.35;;
37157;SDS011;23050;51.776;22.638;2024-02-14T04:06:15;23.40;;;10.93;;
37157;SDS011;23050;51.776;22.638;2024-02-14T04:08:42;26.52;;;12.02;;
37157;SDS011;23050;51.776;22.638;2024-02-14T04:11:08;22.73;;;11.52;;
37157;SDS011;23050;51.776;22.638;2024-02-14T04:13:34;29.88;;;12.73;;
37157;SDS011;23050;51.776;22.638;2024-02-14T04:16:00;23.30;;;11.32;;
37157;SDS011;23050;51.776;22.638;2024-02-14T04:18:26;22.88;;;10.73;;
37157;SDS011;23050;51.776;22.638;2024-02-14T04:20:51;25.52;;;11.02;;
37157;SDS011;23050;51.776;22.638;2024-02-14T04:23:17;29.73;;;11.18;;
37157;SDS011;23050;51.776;22.638;2024-02-14T04:25:43;28.80;;;11.93;;
37157;SDS011;23050;51.776;22.638;2024-02-14T04:28:09;22.25;;;10.75;;
37157;SDS011;23050;51.776;22.638;2024-02-14T04:30:36;27.50;;;11.50;;
37157;SDS011;23050;51.776;22.638;2024-02-14T04:33:03;22.63;;;11.63;;
37157;SDS011;23050;51.776;22.638;2024-02-14T04:35:29;38.15;;;14.98;;
37157;SDS011;23050;51.776;22.638;2024-02-14T04:37:55;79.88;;;32.20;;
37157;SDS011;23050;51.776;22.638;2024-02-14T04:40:21;50.63;;;20.38;;
37157;SDS011;23050;51.776;22.638;2024-02-14T04:42:47;35.17;;;13.38;;
37157;SDS011;23050;51.776;22.638;2024-02-14T04:45:12;31.42;;;11.90;;
37157;SDS011;23050;51.776;22.638;2024-02-14T04:47:38;29.98;;;13.50;;
37157;SDS011;23050;51.776;22.638;2024-02-14T04:50:04;31.60;;;12.23;;
37157;SDS011;23050;51.776;22.638;2024-02-14T04:52:30;49.17;;;17.13;;
37157;SDS011;23050;51.776;22.638;2024-02-14T04:54:55;71.85;;;21.23;;
37157;SDS011;23050;51.776;22.638;2024-02-14T04:57:21;71.70;;;21.52;;
37157;SDS011;23050;51.776;22.638;2024-02-14T04:59:47;65.72;;;19.60;;
37157;SDS011;23050;51.776;22.638;2024-02-14T05:02:13;64.65;;;19.38;;
37157;SDS011;23050;51.776;22.638;2024-02-14T05:04:38;68.22;;;19.65;;
37157;SDS011;23050;51.776;22.638;2024-02-14T05:07:04;62.67;;;18.25;;
37157;SDS011;23050;51.776;22.638;2024-02-14T05:09:30;56.25;;;17.70;;
37157;SDS011;23050;51.776;22.638;2024-02-14T05:11:56;49.47;;;16.55;;
37157;SDS011;23050;51.776;22.638;2024-02-14T05:14:21;36.25;;;15.40;;
37157;SDS011;23050;51.776;22.638;2024-02-14T05:16:48;36.58;;;13.30;;
37157;SDS011;23050;51.776;22.638;2024-02-14T05:19:14;33.78;;;13.55;;
37157;SDS011;23050;51.776;22.638;2024-02-14T05:21:40;32.20;;;13.18;;
37157;SDS011;23050;51.776;22.638;2024-02-14T05:24:06;30.63;;;12.60;;
37157;SDS011;23050;51.776;22.638;2024-02-14T05:26:32;32.40;;;12.52;;
37157;SDS011;23050;51.776;22.638;2024-02-14T05:28:58;39.38;;;13.98;;
37157;SDS011;23050;51.776;22.638;2024-02-14T05:31:24;36.30;;;12.73;;
37157;SDS011;23050;51.776;22.638;2024-02-14T05:33:50;25.63;;;12.00;;
37157;SDS011;23050;51.776;22.638;2024-02-14T05:36:15;34.92;;;13.90;;
37157;SDS011;23050;51.776;22.638;2024-02-14T05:38:42;30.90;;;12.48;;
37157;SDS011;23050;51.776;22.638;2024-02-14T05:41:07;51.95;;;14.57;;
37157;SDS011;23050;51.776;22.638;2024-02-14T05:43:33;29.73;;;12.40;;
37157;SDS011;23050;51.776;22.638;2024-02-14T05:45:59;28.20;;;12.73;;
37157;SDS011;23050;51.776;22.638;2024-02-14T05:48:25;24.67;;;11.68;;
37157;SDS011;23050;51.776;22.638;2024-02-14T05:50:51;26.23;;;12.10;;
37157;SDS011;23050;51.776;22.638;2024-02-14T05:53:17;24.95;;;12.10;;
37157;SDS011;23050;51.776;22.638;2024-02-14T05:55:43;25.02;;;13.77;;
37157;SDS011;23050;51.776;22.638;2024-02-14T05:58:08;30.60;;;14.95;;
37157;SDS011;23050;51.776;22.638;2024-02-14T06:00:34;33.08;;;15.27;;
37157;SDS011;23050;51.776;22.638;2024-02-14T06:03:00;35.38;;;14.85;;
37157;SDS011;23050;51.776;22.638;2024-02-14T06:05:27;31.13;;;14.60;;
37157;SDS011;23050;51.776;22.638;2024-02-14T06:07:52;66.93;;;28.92;;
37157;SDS011;23050;51.776;22.638;2024-02-14T06:10:18;76.15;;;38.08;;
37157;SDS011;23050;51.776;22.638;2024-02-14T06:12:44;77.07;;;40.08;;
37157;SDS011;23050;51.776;22.638;2024-02-14T06:15:11;54.88;;;31.02;;
37157;SDS011;23050;51.776;22.638;2024-02-14T06:17:36;51.00;;;26.20;;
37157;SDS011;23050;51.776;22.638;2024-02-14T06:20:05;44.65;;;22.30;;
37157;SDS011;23050;51.776;22.638;2024-02-14T06:22:32;44.78;;;21.80;;
37157;SDS011;23050;51.776;22.638;2024-02-14T06:25:01;52.88;;;26.23;;
37157;SDS011;23050;51.776;22.638;2024-02-14T06:27:29;51.22;;;23.48;;
37157;SDS011;23050;51.776;22.638;2024-02-14T06:29:55;54.70;;;40.78;;
37157;SDS011;23050;51.776;22.638;2024-02-14T06:32:22;51.53;;;38.50;;
37157;SDS011;23050;51.776;22.638;2024-02-14T06:34:47;60.20;;;39.97;;
37157;SDS011;23050;51.776;22.638;2024-02-14T06:37:13;59.95;;;34.10;;
37157;SDS011;23050;51.776;22.638;2024-02-14T06:39:38;46.63;;;25.08;;
37157;SDS011;23050;51.776;22.638;2024-02-14T06:42:04;34.78;;;17.88;;
37157;SDS011;23050;51.776;22.638;2024-02-14T06:44:30;33.75;;;16.98;;
37157;SDS011;23050;51.776;22.638;2024-02-14T06:46:55;36.95;;;17.42;;
37157;SDS011;23050;51.776;22.638;2024-02-14T06:49:21;28.05;;;14.93;;
37157;SDS011;23050;51.776;22.638;2024-02-14T06:51:46;32.92;;;14.55;;
37157;SDS011;23050;51.776;22.638;2024-02-14T06:54:12;32.92;;;16.48;;
37157;SDS011;23050;51.776;22.638;2024-02-14T06:56:38;29.58;;;15.13;;
37157;SDS011;23050;51.776;22.638;2024-02-14T06:59:03;24.73;;;13.02;;
37157;SDS011;23050;51.776;22.638;2024-02-14T07:01:29;27.10;;;12.82;;
37157;SDS011;23050;51.776;22.638;2024-02-14T07:03:55;22.73;;;11.20;;
37157;SDS011;23050;51.776;22.638;2024-02-14T07:06:21;31.25;;;12.27;;
37157;SDS011;23050;51.776;22.638;2024-02-14T07:08:47;26.35;;;11.30;;
37157;SDS011;23050;51.776;22.638;2024-02-14T07:11:13;24.77;;;10.45;;
37157;SDS011;23050;51.776;22.638;2024-02-14T07:13:40;19.92;;;10.07;;
37157;SDS011;23050;51.776;22.638;2024-02-14T07:16:06;21.10;;;11.77;;
37157;SDS011;23050;51.776;22.638;2024-02-14T07:18:33;18.98;;;9.48;;
37157;SDS011;23050;51.776;22.638;2024-02-14T07:20:59;19.52;;;8.77;;
37157;SDS011;23050;51.776;22.638;2024-02-14T07:23:24;21.20;;;8.65;;
37157;SDS011;23050;51.776;22.638;2024-02-14T07:25:51;16.17;;;7.63;;
37157;SDS011;23050;51.776;22.638;2024-02-14T07:28:17;17.95;;;8.43;;
37157;SDS011;23050;51.776;22.638;2024-02-14T07:33:12;15.75;;;7.82;;
37157;SDS011;23050;51.776;22.638;2024-02-14T07:35:37;21.48;;;8.80;;
37157;SDS011;23050;51.776;22.638;2024-02-14T07:38:03;17.75;;;10.05;;
37157;SDS011;23050;51.776;22.638;2024-02-14T07:40:29;32.97;;;15.50;;
37157;SDS011;23050;51.776;22.638;2024-02-14T07:42:59;43.72;;;24.95;;
37157;SDS011;23050;51.776;22.638;2024-02-14T07:45:25;87.47;;;40.80;;
37157;SDS011;23050;51.776;22.638;2024-02-14T07:47:51;55.58;;;26.60;;
37157;SDS011;23050;51.776;22.638;2024-02-14T07:50:17;14.15;;;8.00;;
37157;SDS011;23050;51.776;22.638;2024-02-14T07:52:43;14.40;;;7.13;;
37157;SDS011;23050;51.776;22.638;2024-02-14T07:55:10;14.85;;;6.78;;
37157;SDS011;23050;51.776;22.638;2024-02-14T07:57:37;17.13;;;7.65;;
37157;SDS011;23050;51.776;22.638;2024-02-14T08:00:04;18.95;;;8.73;;
37157;SDS011;23050;51.776;22.638;2024-02-14T08:02:34;24.52;;;10.10;;
37157;SDS011;23050;51.776;22.638;2024-02-14T08:05:01;20.30;;;10.30;;
37157;SDS011;23050;51.776;22.638;2024-02-14T08:07:27;13.23;;;8.45;;
37157;SDS011;23050;51.776;22.638;2024-02-14T08:09:52;20.92;;;7.95;;
37157;SDS011;23050;51.776;22.638;2024-02-14T08:12:19;17.20;;;6.63;;
37157;SDS011;23050;51.776;22.638;2024-02-14T08:14:44;16.45;;;6.15;;
37157;SDS011;23050;51.776;22.638;2024-02-14T08:17:12;13.80;;;5.82;;
37157;SDS011;23050;51.776;22.638;2024-02-14T08:19:38;14.23;;;6.55;;
37157;SDS011;23050;51.776;22.638;2024-02-14T08:22:04;13.13;;;6.75;;
37157;SDS011;23050;51.776;22.638;2024-02-14T08:24:30;41.60;;;18.67;;
37157;SDS011;23050;51.776;22.638;2024-02-14T08:26:56;16.33;;;7.32;;
37157;SDS011;23050;51.776;22.638;2024-02-14T08:29:22;11.05;;;6.43;;
37157;SDS011;23050;51.776;22.638;2024-02-14T08:31:48;27.83;;;17.77;;
37157;SDS011;23050;51.776;22.638;2024-02-14T08:34:14;10.38;;;5.57;;
37157;SDS011;23050;51.776;22.638;2024-02-14T08:36:41;14.48;;;7.25;;
37157;SDS011;23050;51.776;22.638;2024-02-14T08:39:07;11.77;;;5.55;;
37157;SDS011;23050;51.776;22.638;2024-02-14T08:41:34;12.55;;;5.72;;
37157;SDS011;23050;51.776;22.638;2024-02-14T08:46:30;12.10;;;4.72;;
37157;SDS011;23050;51.776;22.638;2024-02-14T08:48:56;12.57;;;4.85;;
37157;SDS011;23050;51.776;22.638;2024-02-14T08:51:22;11.15;;;4.85;;
37157;SDS011;23050;51.776;22.638;2024-02-14T08:53:48;10.20;;;4.78;;
37157;SDS011;23050;51.776;22.638;2024-02-14T08:56:14;10.13;;;3.47;;
37157;SDS011;23050;51.776;22.638;2024-02-14T08:58:40;11.98;;;4.00;;
37157;SDS011;23050;51.776;22.638;2024-02-14T09:01:05;10.23;;;4.82;;
37157;SDS011;23050;51.776;22.638;2024-02-14T09:03:32;13.00;;;4.72;;
37157;SDS011;23050;51.776;22.638;2024-02-14T09:05:58;13.38;;;4.30;;
37157;SDS011;23050;51.776;22.638;2024-02-14T09:08:23;11.90;;;4.20;;
37157;SDS011;23050;51.776;22.638;2024-02-14T09:10:49;9.55;;;3.80;;
37157;SDS011;23050;51.776;22.638;2024-02-14T09:13:15;14.80;;;5.60;;
37157;SDS011;23050;51.776;22.638;2024-02-14T09:15:42;11.98;;;4.53;;
37157;SDS011;23050;51.776;22.638;2024-02-14T09:18:08;12.80;;;5.10;;
37157;SDS011;23050;51.776;22.638;2024-02-14T09:20:34;11.00;;;5.32;;
37157;SDS011;23050;51.776;22.638;2024-02-14T09:22:59;14.10;;;6.35;;
37157;SDS011;23050;51.776;22.638;2024-02-14T09:25:25;14.68;;;5.47;;
37157;SDS011;23050;51.776;22.638;2024-02-14T09:27:51;14.30;;;6.75;;
37157;SDS011;23050;51.776;22.638;2024-02-14T09:30:18;11.13;;;5.32;;
37157;SDS011;23050;51.776;22.638;2024-02-14T09:32:44;10.85;;;5.47;;
37157;SDS011;23050;51.776;22.638;2024-02-14T09:35:12;12.02;;;5.15;;
37157;SDS011;23050;51.776;22.638;2024-02-14T09:37:39;9.55;;;4.38;;
37157;SDS011;23050;51.776;22.638;2024-02-14T09:40:07;10.63;;;3.70;;
37157;SDS011;23050;51.776;22.638;2024-02-14T09:42:38;11.43;;;4.63;;
37157;SDS011;23050;51.776;22.638;2024-02-14T09:45:08;15.57;;;4.43;;
37157;SDS011;23050;51.776;22.638;2024-02-14T09:47:34;8.43;;;3.85;;
37157;SDS011;23050;51.776;22.638;2024-02-14T09:50:02;9.27;;;4.93;;
37157;SDS011;23050;51.776;22.638;2024-02-14T09:52:32;11.90;;;6.28;;
37157;SDS011;23050;51.776;22.638;2024-02-14T09:54:58;11.80;;;4.93;;
37157;SDS011;23050;51.776;22.638;2024-02-14T09:57:25;11.15;;;5.50;;
37157;SDS011;23050;51.776;22.638;2024-02-14T09:59:53;10.68;;;3.88;;
37157;SDS011;23050;51.776;22.638;2024-02-14T10:02:21;9.32;;;3.75;;
37157;SDS011;23050;51.776;22.638;2024-02-14T10:04:47;10.18;;;4.40;;
37157;SDS011;23050;51.776;22.638;2024-02-14T10:07:12;10.05;;;5.00;;
37157;SDS011;23050;51.776;22.638;2024-02-14T10:09:41;11.20;;;4.78;;
37157;SDS011;23050;51.776;22.638;2024-02-14T10:12:08;9.63;;;3.92;;
37157;SDS011;23050;51.776;22.638;2024-02-14T10:14:37;10.50;;;4.13;;
37157;SDS011;23050;51.776;22.638;2024-02-14T10:17:03;11.85;;;4.43;;
37157;SDS011;23050;51.776;22.638;2024-02-14T10:19:29;7.15;;;3.17;;
37157;SDS011;23050;51.776;22.638;2024-02-14T10:21:58;7.32;;;3.72;;
37157;SDS011;23050;51.776;22.638;2024-02-14T10:24:26;10.95;;;3.78;;
37157;SDS011;23050;51.776;22.638;2024-02-14T10:26:53;7.43;;;3.92;;
37157;SDS011;23050;51.776;22.638;2024-02-14T10:29:19;7.28;;;3.65;;
37157;SDS011;23050;51.776;22.638;2024-02-14T10:31:45;9.63;;;4.38;;
37157;SDS011;23050;51.776;22.638;2024-02-14T10:34:11;14.27;;;4.72;;
37157;SDS011;23050;51.776;22.638;2024-02-14T10:36:37;8.77;;;4.18;;
37157;SDS011;23050;51.776;22.638;2024-02-14T10:39:05;8.90;;;3.45;;
37157;SDS011;23050;51.776;22.638;2024-02-14T10:41:32;7.40;;;3.53;;
37157;SDS011;23050;51.776;22.638;2024-02-14T10:44:03;7.95;;;3.00;;
37157;SDS011;23050;51.776;22.638;2024-02-14T10:46:31;9.82;;;4.63;;
37157;SDS011;23050;51.776;22.638;2024-02-14T10:49:04;7.85;;;3.95;;
37157;SDS011;23050;51.776;22.638;2024-02-14T10:53:58;13.77;;;6.20;;
37157;SDS011;23050;51.776;22.638;2024-02-14T10:56:27;8.20;;;3.30;;
37157;SDS011;23050;51.776;22.638;2024-02-14T10:58:55;9.00;;;3.97;;
37157;SDS011;23050;51.776;22.638;2024-02-14T11:01:25;8.43;;;3.83;;
37157;SDS011;23050;51.776;22.638;2024-02-14T11:03:53;7.78;;;3.33;;
37157;SDS011;23050;51.776;22.638;2024-02-14T11:06:20;8.00;;;2.83;;
37157;SDS011;23050;51.776;22.638;2024-02-14T11:08:56;6.93;;;3.05;;
37157;SDS011;23050;51.776;22.638;2024-02-14T11:11:22;8.32;;;3.10;;
37157;SDS011;23050;51.776;22.638;2024-02-14T11:13:52;8.63;;;3.95;;
37157;SDS011;23050;51.776;22.638;2024-02-14T11:16:22;9.55;;;3.50;;
37157;SDS011;23050;51.776;22.638;2024-02-14T11:18:53;6.32;;;2.63;;
37157;SDS011;23050;51.776;22.638;2024-02-14T11:21:19;5.15;;;2.17;;
37157;SDS011;23050;51.776;22.638;2024-02-14T11:23:54;8.35;;;2.80;;
37157;SDS011;23050;51.776;22.638;2024-02-14T11:26:20;9.75;;;3.45;;
37157;SDS011;23050;51.776;22.638;2024-02-14T11:28:48;8.93;;;4.05;;
37157;SDS011;23050;51.776;22.638;2024-02-14T11:31:17;6.90;;;2.53;;
37157;SDS011;23050;51.776;22.638;2024-02-14T11:33:42;9.37;;;2.90;;
37157;SDS011;23050;51.776;22.638;2024-02-14T11:36:11;8.18;;;3.45;;
37157;SDS011;23050;51.776;22.638;2024-02-14T11:38:40;6.30;;;2.47;;
37157;SDS011;23050;51.776;22.638;2024-02-14T11:41:06;7.20;;;2.60;;
37157;SDS011;23050;51.776;22.638;2024-02-14T11:43:32;6.13;;;3.08;;
37157;SDS011;23050;51.776;22.638;2024-02-14T11:45:57;7.93;;;3.15;;
37157;SDS011;23050;51.776;22.638;2024-02-14T11:48:23;6.63;;;2.55;;
37157;SDS011;23050;51.776;22.638;2024-02-14T11:50:49;5.78;;;2.30;;
37157;SDS011;23050;51.776;22.638;2024-02-14T11:53:17;5.60;;;2.13;;
37157;SDS011;23050;51.776;22.638;2024-02-14T11:55:44;6.15;;;2.60;;
37157;SDS011;23050;51.776;22.638;2024-02-14T11:58:12;8.85;;;2.90;;
37157;SDS011;23050;51.776;22.638;2024-02-14T12:00:39;5.00;;;2.13;;
37157;SDS011;23050;51.776;22.638;2024-02-14T12:03:06;8.20;;;2.20;;
37157;SDS011;23050;51.776;22.638;2024-02-14T12:05:35;5.60;;;1.98;;
37157;SDS011;23050;51.776;22.638;2024-02-14T12:08:02;8.90;;;4.00;;
37157;SDS011;23050;51.776;22.638;2024-02-14T12:10:33;4.75;;;2.13;;
37157;SDS011;23050;51.776;22.638;2024-02-14T12:13:12;5.15;;;2.45;;
37157;SDS011;23050;51.776;22.638;2024-02-14T12:15:46;6.75;;;3.30;;
37157;SDS011;23050;51.776;22.638;2024-02-14T12:18:16;3.65;;;1.85;;
37157;SDS011;23050;51.776;22.638;2024-02-14T12:20:46;6.65;;;2.47;;
37157;SDS011;23050;51.776;22.638;2024-02-14T12:23:17;10.75;;;4.55;;
37157;SDS011;23050;51.776;22.638;2024-02-14T12:25:46;8.73;;;3.25;;
37157;SDS011;23050;51.776;22.638;2024-02-14T12:28:15;6.35;;;2.28;;
37157;SDS011;23050;51.776;22.638;2024-02-14T12:30:46;7.53;;;4.53;;
37157;SDS011;23050;51.776;22.638;2024-02-14T12:35:42;8.93;;;3.58;;
37157;SDS011;23050;51.776;22.638;2024-02-14T12:38:10;6.38;;;2.85;;
37157;SDS011;23050;51.776;22.638;2024-02-14T12:40:37;17.75;;;6.25;;
37157;SDS011;23050;51.776;22.638;2024-02-14T12:43:06;14.50;;;7.63;;
37157;SDS011;23050;51.776;22.638;2024-02-14T12:45:33;13.60;;;3.67;;
37157;SDS011;23050;51.776;22.638;2024-02-14T12:47:58;44.45;;;21.25;;
37157;SDS011;23050;51.776;22.638;2024-02-14T12:50:24;26.00;;;14.07;;
37157;SDS011;23050;51.776;22.638;2024-02-14T12:52:51;20.88;;;10.02;;
37157;SDS011;23050;51.776;22.638;2024-02-14T12:55:16;3.85;;;2.10;;
37157;SDS011;23050;51.776;22.638;2024-02-14T12:57:43;7.88;;;3.17;;
37157;SDS011;23050;51.776;22.638;2024-02-14T13:00:10;9.85;;;5.15;;
37157;SDS011;23050;51.776;22.638;2024-02-14T13:02:36;19.83;;;10.02;;
37157;SDS011;23050;51.776;22.638;2024-02-14T13:05:03;9.35;;;2.30;;
37157;SDS011;23050;51.776;22.638;2024-02-14T13:07:30;5.85;;;2.67;;
37157;SDS011;23050;51.776;22.638;2024-02-14T13:09:56;7.03;;;2.35;;
37157;SDS011;23050;51.776;22.638;2024-02-14T13:12:22;36.40;;;16.85;;
37157;SDS011;23050;51.776;22.638;2024-02-14T13:14:48;14.95;;;6.32;;
37157;SDS011;23050;51.776;22.638;2024-02-14T13:17:13;15.80;;;6.28;;
37157;SDS011;23050;51.776;22.638;2024-02-14T13:19:40;9.23;;;2.92;;
37157;SDS011;23050;51.776;22.638;2024-02-14T13:22:16;6.53;;;2.35;;
37157;SDS011;23050;51.776;22.638;2024-02-14T13:24:52;5.25;;;2.05;;
37157;SDS011;23050;51.776;22.638;2024-02-14T13:27:17;6.63;;;2.05;;
37157;SDS011;23050;51.776;22.638;2024-02-14T13:29:46;8.60;;;2.90;;
37157;SDS011;23050;51.776;22.638;2024-02-14T13:32:12;12.95;;;5.90;;
37157;SDS011;23050;51.776;22.638;2024-02-14T13:34:38;5.93;;;2.20;;
37157;SDS011;23050;51.776;22.638;2024-02-14T13:37:03;4.00;;;1.75;;
37157;SDS011;23050;51.776;22.638;2024-02-14T13:39:30;3.28;;;1.73;;
37157;SDS011;23050;51.776;22.638;2024-02-14T13:41:56;22.95;;;10.07;;
37157;SDS011;23050;51.776;22.638;2024-02-14T13:44:24;4.93;;;2.40;;
37157;SDS011;23050;51.776;22.638;2024-02-14T13:46:55;7.97;;;3.95;;
37157;SDS011;23050;51.776;22.638;2024-02-14T13:49:21;21.75;;;13.10;;
37157;SDS011;23050;51.776;22.638;2024-02-14T13:51:51;14.20;;;5.90;;
37157;SDS011;23050;51.776;22.638;2024-02-14T13:54:20;6.70;;;2.90;;
37157;SDS011;23050;51.776;22.638;2024-02-14T13:56:47;5.97;;;2.75;;
37157;SDS011;23050;51.776;22.638;2024-02-14T13:59:14;5.18;;;1.90;;
37157;SDS011;23050;51.776;22.638;2024-02-14T14:01:39;4.18;;;2.47;;
37157;SDS011;23050;51.776;22.638;2024-02-14T14:04:05;8.15;;;3.97;;
37157;SDS011;23050;51.776;22.638;2024-02-14T14:06:34;5.38;;;1.83;;
37157;SDS011;23050;51.776;22.638;2024-02-14T14:09:04;10.45;;;6.55;;
37157;SDS011;23050;51.776;22.638;2024-02-14T14:11:35;11.60;;;6.90;;
37157;SDS011;23050;51.776;22.638;2024-02-14T14:14:01;3.50;;;1.90;;
37157;SDS011;23050;51.776;22.638;2024-02-14T14:16:26;8.50;;;2.85;;
37157;SDS011;23050;51.776;22.638;2024-02-14T14:19:04;5.53;;;2.10;;
37157;SDS011;23050;51.776;22.638;2024-02-14T14:21:37;8.60;;;2.35;;
37157;SDS011;23050;51.776;22.638;2024-02-14T14:24:04;8.80;;;3.95;;
37157;SDS011;23050;51.776;22.638;2024-02-14T14:26:30;7.10;;;2.35;;
37157;SDS011;23050;51.776;22.638;2024-02-14T14:28:55;17.48;;;8.45;;
37157;SDS011;23050;51.776;22.638;2024-02-14T14:31:21;11.32;;;3.25;;
37157;SDS011;23050;51.776;22.638;2024-02-14T14:33:47;13.95;;;7.07;;